Time;durP1;ratioP1;P1;durP2;ratioP2;P2;SDS_P1;SDS_P2;PMS_P1;PMS_P2;Temp;Humidity;BMP_temperature;BMP_pressure;BME280_temperature;BME280_humidity;BME280_pressure;Samples;Min_cycle;Max_cycle;Signal;HPM_P1;HPM_P2
2023/04/13 00:01:01;;;;;;;3.78;1.00;;;;;;;;;;4997623;28;92470;-67
2023/04/13 00:03:31;;;;;;;0.70;0.70;;;;;;;;;;4996814;28;92762;-67
2023/04/13 00:06:15;;;;;;;1.55;0.90;;;;;;;;;;4997646;28;92784;-67
2023/04/13 00:08:42;;;;;;;5.80;1.40;;;;;;;;;;4997033;28;92468;-67
2023/04/13 00:11:09;;;;;;;1.05;0.68;;;;;;;;;;4996984;28;93251;-67
2023/04/13 00:13:39;;;;;;;5.10;1.08;;;;;;;;;;4996496;28;93259;-67
2023/04/13 00:16:06;;;;;;;;;;;;;;;;;;5013008;28;92689;-67
2023/04/13 00:18:33;;;;;;;5.47;1.15;;;;;;;;;;4998643;28;123323;-67
2023/04/13 00:20:59;;;;;;;3.22;0.90;;;;;;;;;;4996987;28;92495;-67
2023/04/13 00:23:25;;;;;;;3.00;1.13;;;;;;;;;;4996214;28;94480;-67
2023/04/13 00:25:52;;;;;;;2.80;0.75;;;;;;;;;;5003962;28;93700;-67
2023/04/13 00:28:18;;;;;;;5.05;0.98;;;;;;;;;;5007855;28;92712;-67
2023/04/13 00:30:45;;;;;;;3.05;0.95;;;;;;;;;;4995507;28;93631;-67
2023/04/13 00:33:11;;;;;;;1.58;0.98;;;;;;;;;;5006993;28;93236;-67
2023/04/13 00:35:38;;;;;;;3.05;1.10;;;;;;;;;;5000499;28;91884;-67
2023/04/13 00:38:05;;;;;;;3.05;1.00;;;;;;;;;;4995474;28;92863;-67
2023/04/13 00:40:31;;;;;;;10.98;1.48;;;;;;;;;;4999208;28;94630;-67
2023/04/13 00:42:59;;;;;;;1.95;0.82;;;;;;;;;;4994886;28;94763;-67
2023/04/13 00:45:27;;;;;;;3.60;0.88;;;;;;;;;;4999771;28;93360;-67
2023/04/13 00:47:56;;;;;;;1.05;0.63;;;;;;;;;;5001251;28;92414;-67
2023/04/13 00:50:23;;;;;;;2.27;1.10;;;;;;;;;;4997063;28;93134;-67
2023/04/13 00:52:49;;;;;;;3.65;0.70;;;;;;;;;;5004529;28;93583;-67
2023/04/13 00:55:19;;;;;;;1.13;0.80;;;;;;;;;;4994789;28;92662;-67
2023/04/13 00:57:48;;;;;;;2.38;0.85;;;;;;;;;;5013456;28;94248;-67
2023/04/13 01:00:16;;;;;;;1.80;0.77;;;;;;;;;;5005145;28;91673;-67
2023/04/13 01:02:43;;;;;;;2.30;0.90;;;;;;;;;;4999529;28;92639;-69
2023/04/13 01:05:15;;;;;;;2.38;1.00;;;;;;;;;;4995594;28;93313;-66
2023/04/13 01:07:49;;;;;;;1.83;1.00;;;;;;;;;;4994816;28;95022;-66
2023/04/13 01:10:16;;;;;;;4.47;0.75;;;;;;;;;;4995613;28;95480;-67
2023/04/13 01:12:42;;;;;;;2.58;0.88;;;;;;;;;;4996108;28;93496;-66
2023/04/13 01:15:11;;;;;;;5.97;1.10;;;;;;;;;;4995654;28;93271;-67
2023/04/13 01:17:38;;;;;;;4.55;0.98;;;;;;;;;;4996239;28;93433;-66
2023/04/13 01:20:12;;;;;;;0.70;0.70;;;;;;;;;;4995656;28;93578;-67
2023/04/13 01:22:44;;;;;;;1.58;1.00;;;;;;;;;;4996425;28;92587;-66
2023/04/13 01:25:11;;;;;;;2.10;0.93;;;;;;;;;;4999358;28;93287;-67
2023/04/13 01:27:41;;;;;;;4.35;1.08;;;;;;;;;;4995808;28;92538;-67
2023/04/13 01:30:09;;;;;;;1.17;0.90;;;;;;;;;;4994842;28;93288;-67
2023/04/13 01:32:36;;;;;;;1.40;0.82;;;;;;;;;;5000919;28;96727;-67
2023/04/13 01:35:05;;;;;;;3.25;1.30;;;;;;;;;;5004603;28;92477;-67
2023/04/13 01:37:32;;;;;;;5.05;1.10;;;;;;;;;;5000049;28;93168;-67
2023/04/13 01:39:58;;;;;;;2.95;0.85;;;;;;;;;;5000469;28;93430;-67
2023/04/13 01:42:25;;;;;;;2.83;0.98;;;;;;;;;;5007942;28;93361;-67
2023/04/13 01:44:51;;;;;;;3.75;1.23;;;;;;;;;;5003819;28;93075;-67
2023/04/13 01:47:19;;;;;;;4.05;1.42;;;;;;;;;;5006946;28;92448;-67
2023/04/13 01:49:51;;;;;;;2.38;1.60;;;;;;;;;;5007004;28;93117;-67
2023/04/13 01:52:18;;;;;;;0.98;0.95;;;;;;;;;;4995573;28;94799;-67
2023/04/13 01:54:46;;;;;;;9.35;1.30;;;;;;;;;;4997706;28;92523;-67
2023/04/13 01:57:13;;;;;;;4.78;1.80;;;;;;;;;;4997382;28;94837;-67
2023/04/13 01:59:39;;;;;;;1.85;1.30;;;;;;;;;;4993945;28;94777;-67
2023/04/13 02:02:06;;;;;;;1.92;1.33;;;;;;;;;;4995455;28;92422;-67
2023/04/13 02:04:33;;;;;;;3.95;1.00;;;;;;;;;;4995128;28;93075;-66
2023/04/13 02:07:00;;;;;;;3.50;1.40;;;;;;;;;;4998316;28;93548;-67
2023/04/13 02:09:27;;;;;;;6.05;1.20;;;;;;;;;;4994316;28;93113;-66
2023/04/13 02:11:54;;;;;;;1.63;0.80;;;;;;;;;;4994704;28;93729;-67
2023/04/13 02:14:20;;;;;;;2.88;0.88;;;;;;;;;;4995599;28;91900;-67
2023/04/13 02:16:46;;;;;;;2.28;1.15;;;;;;;;;;4995575;28;92545;-67
2023/04/13 02:19:13;;;;;;;1.52;1.00;;;;;;;;;;4986565;28;94767;-67
2023/04/13 02:21:40;;;;;;;2.50;1.20;;;;;;;;;;4983287;28;95031;-67
2023/04/13 02:24:07;;;;;;;3.28;1.13;;;;;;;;;;4995060;28;95570;-67
2023/04/13 02:26:36;;;;;;;2.10;1.23;;;;;;;;;;4994605;28;93456;-67
2023/04/13 02:29:02;;;;;;;1.73;1.13;;;;;;;;;;4998380;28;92531;-67
2023/04/13 02:31:30;;;;;;;2.92;1.50;;;;;;;;;;4993704;28;93360;-67
2023/04/13 02:33:57;;;;;;;2.08;1.20;;;;;;;;;;4994065;28;92492;-67
2023/04/13 02:36:24;;;;;;;3.03;2.15;;;;;;;;;;5009524;28;93846;-67
2023/04/13 02:38:50;;;;;;;8.77;2.95;;;;;;;;;;5013984;28;92806;-67
2023/04/13 02:41:21;;;;;;;6.10;2.53;;;;;;;;;;5014119;28;92535;-67
2023/04/13 02:43:48;;;;;;;3.33;2.42;;;;;;;;;;5012770;28;94287;-67
2023/04/13 02:46:15;;;;;;;6.60;2.83;;;;;;;;;;5008646;28;96372;-67
2023/04/13 02:48:41;;;;;;;6.75;3.28;;;;;;;;;;4997973;28;92642;-67
2023/04/13 02:51:07;;;;;;;7.30;3.10;;;;;;;;;;4996368;28;93087;-67
2023/04/13 02:53:34;;;;;;;4.32;3.13;;;;;;;;;;4994092;28;92475;-67
2023/04/13 02:56:01;;;;;;;5.03;2.83;;;;;;;;;;4993644;28;93284;-67
2023/04/13 02:58:31;;;;;;;7.32;2.70;;;;;;;;;;4993347;28;93508;-67
2023/04/13 03:00:57;;;;;;;7.63;2.53;;;;;;;;;;5000018;28;92715;-67
2023/04/13 03:03:24;;;;;;;12.35;3.08;;;;;;;;;;4994626;28;93538;-66
2023/04/13 03:05:50;;;;;;;6.78;2.35;;;;;;;;;;4994368;28;94942;-67
2023/04/13 03:08:16;;;;;;;3.40;2.58;;;;;;;;;;4994835;28;92429;-67
2023/04/13 03:10:43;;;;;;;6.30;2.10;;;;;;;;;;4992840;28;94863;-67
2023/04/13 03:13:10;;;;;;;7.20;2.28;;;;;;;;;;4997324;28;93350;-67
2023/04/13 03:15:36;;;;;;;4.20;2.03;;;;;;;;;;4994525;28;94197;-67
2023/04/13 03:18:03;;;;;;;6.07;1.98;;;;;;;;;;4994526;28;93440;-67
2023/04/13 03:20:29;;;;;;;3.65;1.75;;;;;;;;;;4992334;28;92562;-67
2023/04/13 03:22:57;;;;;;;3.28;1.40;;;;;;;;;;4986686;28;94164;-67
2023/04/13 03:25:23;;;;;;;9.70;2.08;;;;;;;;;;4993871;28;92679;-66
2023/04/13 03:27:50;;;;;;;1.75;1.30;;;;;;;;;;4994821;28;92250;-67
2023/04/13 03:30:17;;;;;;;8.27;1.70;;;;;;;;;;4992707;28;92382;-67
2023/04/13 03:32:43;;;;;;;3.15;1.77;;;;;;;;;;4993059;28;93286;-67
2023/04/13 03:35:10;;;;;;;9.88;1.38;;;;;;;;;;5004817;28;94836;-67
2023/04/13 03:37:41;;;;;;;4.30;1.13;;;;;;;;;;5005321;28;93400;-67
2023/04/13 03:40:11;;;;;;;7.50;1.60;;;;;;;;;;4993011;28;92853;-67
2023/04/13 03:42:37;;;;;;;7.53;1.43;;;;;;;;;;4994276;28;94139;-66
2023/04/13 03:45:04;;;;;;;11.27;1.58;;;;;;;;;;4992900;28;93423;-66
2023/04/13 03:47:30;;;;;;;5.07;1.13;;;;;;;;;;5003060;28;92592;-66
2023/04/13 03:49:57;;;;;;;6.15;1.20;;;;;;;;;;4998532;28;93380;-66
2023/04/13 03:52:23;;;;;;;3.60;0.80;;;;;;;;;;4992741;28;93941;-66
2023/04/13 03:54:50;;;;;;;5.05;1.65;;;;;;;;;;5003014;28;92436;-67
2023/04/13 03:57:16;;;;;;;6.57;1.10;;;;;;;;;;4985951;28;94572;-66
2023/04/13 03:59:42;;;;;;;11.80;1.50;;;;;;;;;;5001458;28;95358;-66
2023/04/13 04:02:09;;;;;;;5.38;1.40;;;;;;;;;;4999715;28;96576;-66
2023/04/13 04:04:35;;;;;;;5.18;1.30;;;;;;;;;;5004818;28;93979;-66
2023/04/13 04:07:01;;;;;;;6.45;1.42;;;;;;;;;;5012070;28;92486;-68
2023/04/13 04:09:28;;;;;;;5.32;1.40;;;;;;;;;;5011686;28;93113;-66
2023/04/13 04:11:55;;;;;;;9.27;1.60;;;;;;;;;;5008659;28;94388;-66
2023/04/13 04:14:22;;;;;;;9.95;1.65;;;;;;;;;;4992641;28;92491;-66
2023/04/13 04:16:48;;;;;;;6.95;1.38;;;;;;;;;;5001442;28;93139;-66
2023/04/13 04:19:14;;;;;;;9.98;1.92;;;;;;;;;;4985273;28;92675;-66
2023/04/13 04:21:43;;;;;;;9.25;2.22;;;;;;;;;;4992692;28;93100;-67
2023/04/13 04:24:11;;;;;;;4.60;1.55;;;;;;;;;;4990448;28;95933;-66
2023/04/13 04:26:38;;;;;;;8.07;1.83;;;;;;;;;;5006220;28;92454;-66
2023/04/13 04:29:08;;;;;;;12.40;2.10;;;;;;;;;;4995112;28;93416;-66
2023/04/13 04:31:42;;;;;;;7.25;1.40;;;;;;;;;;5007413;28;93323;-67
2023/04/13 04:34:09;;;;;;;7.95;2.10;;;;;;;;;;5006247;28;92574;-66
2023/04/13 04:36:40;;;;;;;11.75;2.72;;;;;;;;;;5017069;28;94245;-66
2023/04/13 04:39:08;;;;;;;8.68;2.28;;;;;;;;;;5016161;28;94423;-66
2023/04/13 04:41:36;;;;;;;7.10;1.70;;;;;;;;;;5016886;28;93120;-66
2023/04/13 04:44:06;;;;;;;9.23;1.92;;;;;;;;;;5010745;28;93483;-66
2023/04/13 04:46:36;;;;;;;;;;;;;;;;;;5006890;28;92599;-66
2023/04/13 04:49:02;;;;;;;7.65;1.70;;;;;;;;;;5009451;28;123489;-66
2023/04/13 04:51:28;;;;;;;11.20;2.30;;;;;;;;;;4996492;28;94411;-66
2023/04/13 04:53:57;;;;;;;11.70;1.98;;;;;;;;;;5000531;28;92486;-66
2023/04/13 04:56:24;;;;;;;9.48;1.90;;;;;;;;;;5003706;28;94188;-67
2023/04/13 04:58:50;;;;;;;10.35;2.03;;;;;;;;;;4998848;28;94881;-66
2023/04/13 05:01:16;;;;;;;9.10;2.30;;;;;;;;;;5011148;28;92540;-66
2023/04/13 05:03:43;;;;;;;7.68;1.40;;;;;;;;;;5001061;28;93411;-66
2023/04/13 05:06:09;;;;;;;7.03;1.80;;;;;;;;;;4986770;28;91739;-66
2023/04/13 05:08:36;;;;;;;7.55;1.80;;;;;;;;;;4999227;28;92739;-66
2023/04/13 05:11:04;;;;;;;6.53;1.98;;;;;;;;;;4995637;28;94603;-66
2023/04/13 05:13:30;;;;;;;8.93;1.95;;;;;;;;;;4994872;28;94842;-66
2023/04/13 05:15:56;;;;;;;13.07;2.80;;;;;;;;;;4996203;28;96711;-67
2023/04/13 05:18:24;;;;;;;4.60;1.30;;;;;;;;;;4976485;28;93464;-66
2023/04/13 05:20:51;;;;;;;11.10;1.75;;;;;;;;;;4988627;28;92711;-66
2023/04/13 05:23:17;;;;;;;5.88;1.80;;;;;;;;;;4999027;28;94141;-66
2023/04/13 05:25:43;;;;;;;7.25;1.50;;;;;;;;;;4995396;28;92681;-66
2023/04/13 05:28:10;;;;;;;11.57;2.17;;;;;;;;;;4995495;28;93106;-66
2023/04/13 05:30:36;;;;;;;11.35;2.78;;;;;;;;;;4995787;28;93730;-67
2023/04/13 05:33:05;;;;;;;10.68;1.95;;;;;;;;;;4996106;28;92432;-67
2023/04/13 05:35:31;;;;;;;8.38;1.98;;;;;;;;;;5006960;28;94204;-67
2023/04/13 05:37:59;;;;;;;9.77;2.20;;;;;;;;;;4991639;28;96031;-67
2023/04/13 05:40:26;;;;;;;8.15;1.60;;;;;;;;;;5010226;28;93225;-67
2023/04/13 05:42:52;;;;;;;10.68;1.73;;;;;;;;;;5013538;28;92882;-67
2023/04/13 05:45:19;;;;;;;7.75;1.50;;;;;;;;;;5013935;28;94470;-67
2023/04/13 05:47:45;;;;;;;14.43;1.92;;;;;;;;;;5000799;28;93522;-67
2023/04/13 05:50:12;;;;;;;11.38;1.77;;;;;;;;;;5002415;28;93523;-67
2023/04/13 05:52:38;;;;;;;8.90;1.88;;;;;;;;;;4999220;28;92632;-67
2023/04/13 05:55:05;;;;;;;13.38;2.30;;;;;;;;;;5000497;28;93157;-67
2023/04/13 05:57:32;;;;;;;9.23;2.05;;;;;;;;;;5005961;28;93201;-67
2023/04/13 05:59:58;;;;;;;2.72;1.17;;;;;;;;;;5013668;28;92997;-67
2023/04/13 06:02:25;;;;;;;10.27;1.63;;;;;;;;;;4993349;28;96446;-68
2023/04/13 06:04:53;;;;;;;4.97;1.48;;;;;;;;;;4996923;28;93408;-68
2023/04/13 06:07:21;;;;;;;7.25;1.50;;;;;;;;;;4994121;28;92729;-67
2023/04/13 06:09:47;;;;;;;9.43;2.08;;;;;;;;;;4995813;28;93485;-69
2023/04/13 06:12:14;;;;;;;16.25;3.75;;;;;;;;;;4995330;28;92600;-67
2023/04/13 06:14:41;;;;;;;12.02;3.40;;;;;;;;;;4998217;28;94151;-68
2023/04/13 06:17:08;;;;;;;11.07;2.20;;;;;;;;;;5012677;28;92516;-68
2023/04/13 06:19:34;;;;;;;6.90;1.80;;;;;;;;;;5004343;28;91832;-68
2023/04/13 06:22:01;;;;;;;7.95;2.45;;;;;;;;;;4997076;28;93257;-68
2023/04/13 06:24:27;;;;;;;12.10;1.63;;;;;;;;;;4993527;28;93856;-69
2023/04/13 06:26:53;;;;;;;8.55;1.80;;;;;;;;;;5009600;28;94879;-69
2023/04/13 06:29:20;;;;;;;6.85;1.55;;;;;;;;;;4995815;28;92459;-68
2023/04/13 06:31:46;;;;;;;5.00;1.30;;;;;;;;;;5015212;28;92552;-70
2023/04/13 06:34:12;;;;;;;8.55;1.20;;;;;;;;;;5003127;28;94412;-67
2023/04/13 06:36:39;;;;;;;3.83;1.08;;;;;;;;;;4993411;28;94472;-67
2023/04/13 06:39:07;;;;;;;7.43;1.45;;;;;;;;;;5004526;28;92510;-67
2023/04/13 06:41:33;;;;;;;6.38;2.13;;;;;;;;;;4994800;28;92665;-67
2023/04/13 06:43:59;;;;;;;3.63;1.20;;;;;;;;;;4994326;28;92756;-68
2023/04/13 06:46:26;;;;;;;5.22;1.10;;;;;;;;;;4999598;28;92476;-67
2023/04/13 06:48:53;;;;;;;6.13;1.30;;;;;;;;;;5001716;28;94076;-67
2023/04/13 06:51:20;;;;;;;3.67;0.75;;;;;;;;;;5005167;28;94930;-67
2023/04/13 06:53:46;;;;;;;4.57;1.00;;;;;;;;;;5007997;28;95540;-68
2023/04/13 06:56:12;;;;;;;4.10;0.95;;;;;;;;;;5003226;28;94549;-68
2023/04/13 06:58:39;;;;;;;6.68;1.23;;;;;;;;;;5007762;28;92429;-68
2023/04/13 07:01:05;;;;;;;4.43;0.90;;;;;;;;;;4994824;28;94177;-67
2023/04/13 07:03:32;;;;;;;8.00;1.23;;;;;;;;;;4993902;28;94004;-67
2023/04/13 07:05:59;;;;;;;5.15;1.05;;;;;;;;;;4994261;28;92482;-67
2023/04/13 07:08:27;;;;;;;4.82;1.30;;;;;;;;;;5001489;28;92031;-67
2023/04/13 07:10:54;;;;;;;8.13;1.73;;;;;;;;;;5008008;28;93413;-67
2023/04/13 07:13:20;;;;;;;8.20;1.48;;;;;;;;;;4994338;28;93089;-67
2023/04/13 07:15:47;;;;;;;8.77;1.45;;;;;;;;;;4992428;28;95556;-67
2023/04/13 07:18:13;;;;;;;9.75;1.45;;;;;;;;;;4994097;28;92529;-67
2023/04/13 07:20:39;;;;;;;5.60;1.48;;;;;;;;;;4993436;28;94939;-67
2023/04/13 07:23:06;;;;;;;5.80;1.10;;;;;;;;;;4994628;28;93362;-67
2023/04/13 07:25:33;;;;;;;5.35;0.95;;;;;;;;;;4994167;28;92455;-67
2023/04/13 07:28:00;;;;;;;5.30;0.85;;;;;;;;;;4994185;28;94210;-67
2023/04/13 07:30:26;;;;;;;7.10;1.38;;;;;;;;;;4991265;28;93674;-67
2023/04/13 07:32:52;;;;;;;5.80;1.08;;;;;;;;;;4995283;28;92435;-67
2023/04/13 07:35:19;;;;;;;2.45;0.90;;;;;;;;;;4996566;28;93471;-67
2023/04/13 07:37:48;;;;;;;5.75;1.40;;;;;;;;;;4993412;28;92482;-67
2023/04/13 07:40:17;;;;;;;7.75;1.67;;;;;;;;;;4992388;28;94772;-67
2023/04/13 07:42:46;;;;;;;5.85;1.40;;;;;;;;;;4987355;28;94443;-67
2023/04/13 07:45:14;;;;;;;10.18;1.52;;;;;;;;;;5010101;28;92335;-68
2023/04/13 07:47:40;;;;;;;6.32;1.65;;;;;;;;;;4999881;28;92335;-67
2023/04/13 07:50:08;;;;;;;7.97;1.27;;;;;;;;;;4994610;28;93351;-67
2023/04/13 07:52:34;;;;;;;9.38;1.30;;;;;;;;;;4993075;28;92666;-67
2023/04/13 07:55:01;;;;;;;12.30;1.45;;;;;;;;;;4996795;28;94082;-68
2023/04/13 07:57:28;;;;;;;4.65;1.73;;;;;;;;;;4996323;28;91822;-68
2023/04/13 07:59:54;;;;;;;10.27;2.33;;;;;;;;;;4996239;28;92535;-68
2023/04/13 08:02:21;;;;;;;8.65;2.15;;;;;;;;;;4988432;28;93447;-69
2023/04/13 08:04:48;;;;;;;14.50;2.63;;;;;;;;;;4981027;28;94926;-68
2023/04/13 08:07:14;;;;;;;14.88;2.67;;;;;;;;;;4984608;28;95642;-68
2023/04/13 08:09:41;;;;;;;14.25;2.40;;;;;;;;;;4990432;28;93347;-68
2023/04/13 08:12:07;;;;;;;12.23;2.33;;;;;;;;;;5006182;28;92516;-68
2023/04/13 08:14:34;;;;;;;19.63;2.95;;;;;;;;;;5019513;28;92878;-68
2023/04/13 08:17:02;;;;;;;24.23;3.33;;;;;;;;;;5008217;28;93299;-68
2023/04/13 08:19:29;;;;;;;12.10;2.22;;;;;;;;;;5007605;28;94164;-68
2023/04/13 08:21:56;;;;;;;15.63;3.15;;;;;;;;;;5006423;28;93411;-68
2023/04/13 08:24:23;;;;;;;10.93;2.65;;;;;;;;;;5001700;28;92488;-68
2023/04/13 08:26:53;;;;;;;25.02;3.33;;;;;;;;;;4997112;28;93120;-68
2023/04/13 08:29:20;;;;;;;22.23;2.67;;;;;;;;;;4996355;28;95840;-68
2023/04/13 08:31:46;;;;;;;22.65;3.55;;;;;;;;;;5010987;28;92710;-68
2023/04/13 08:34:13;;;;;;;18.40;2.63;;;;;;;;;;5000291;28;94386;-69
2023/04/13 08:36:39;;;;;;;19.88;3.30;;;;;;;;;;4997351;28;93316;-68
2023/04/13 08:39:09;;;;;;;12.57;2.25;;;;;;;;;;4994886;28;93463;-68
2023/04/13 08:41:39;;;;;;;17.52;2.58;;;;;;;;;;5001189;28;93327;-68
2023/04/13 08:44:07;;;;;;;14.23;3.05;;;;;;;;;;4997517;28;92879;-68
2023/04/13 08:46:33;;;;;;;13.70;2.53;;;;;;;;;;4998711;28;93355;-68
2023/04/13 08:49:00;;;;;;;19.83;3.00;;;;;;;;;;4995130;28;93423;-68
2023/04/13 08:51:28;;;;;;;15.73;2.85;;;;;;;;;;4987468;28;92471;-68
2023/04/13 08:53:55;;;;;;;12.57;2.28;;;;;;;;;;5008579;28;94914;-69
2023/04/13 08:56:22;;;;;;;13.57;2.03;;;;;;;;;;5002870;28;94848;-68
2023/04/13 08:59:05;;;;;;;15.95;2.45;;;;;;;;;;4989139;28;95457;-68
2023/04/13 09:01:33;;;;;;;17.45;2.55;;;;;;;;;;4996114;28;93553;-68
2023/04/13 09:04:05;;;;;;;15.73;2.72;;;;;;;;;;4988383;28;92564;-68
2023/04/13 09:06:34;;;;;;;21.20;3.50;;;;;;;;;;5000065;28;93110;-67
2023/04/13 09:09:05;;;;;;;14.50;2.35;;;;;;;;;;4994475;28;94589;-68
2023/04/13 09:11:31;;;;;;;13.27;3.15;;;;;;;;;;4996846;28;91706;-66
2023/04/13 09:13:57;;;;;;;21.55;3.20;;;;;;;;;;4990057;28;92428;-65
2023/04/13 09:16:24;;;;;;;15.68;2.03;;;;;;;;;;5004130;28;93692;-66
2023/04/13 09:18:51;;;;;;;15.38;3.15;;;;;;;;;;4996000;28;95253;-66
2023/04/13 09:21:18;;;;;;;16.02;2.63;;;;;;;;;;4996118;28;95734;-66
2023/04/13 09:23:57;;;;;;;15.82;2.80;;;;;;;;;;4992551;28;92570;-66
2023/04/13 09:26:24;;;;;;;13.43;2.22;;;;;;;;;;5002374;28;94218;-68
2023/04/13 09:28:51;;;;;;;15.75;2.20;;;;;;;;;;5012879;28;94290;-68
2023/04/13 09:31:20;;;;;;;15.90;2.60;;;;;;;;;;4979511;28;94478;-66
2023/04/13 09:33:48;;;;;;;20.88;2.80;;;;;;;;;;5014399;28;93109;-67
2023/04/13 09:36:16;;;;;;;17.00;2.58;;;;;;;;;;4989753;28;92803;-65
2023/04/13 09:38:43;;;;;;;11.68;2.35;;;;;;;;;;4990745;28;92505;-67
2023/04/13 09:41:10;;;;;;;15.60;2.63;;;;;;;;;;4995378;28;93190;-66
2023/04/13 09:43:37;;;;;;;16.17;2.55;;;;;;;;;;4988855;28;95806;-68
2023/04/13 09:46:04;;;;;;;13.10;2.50;;;;;;;;;;5008606;28;95625;-68
2023/04/13 09:48:30;;;;;;;9.48;2.00;;;;;;;;;;4993773;28;93728;-65
2023/04/13 09:50:58;;;;;;;16.02;2.45;;;;;;;;;;4994642;28;92466;-68
2023/04/13 09:53:24;;;;;;;16.08;2.15;;;;;;;;;;4998147;28;93312;-67
2023/04/13 09:55:57;;;;;;;18.33;2.47;;;;;;;;;;4985911;28;93685;-68
2023/04/13 09:58:24;;;;;;;12.70;2.25;;;;;;;;;;5010200;28;92442;-66
2023/04/13 10:00:52;;;;;;;16.05;2.42;;;;;;;;;;4995860;28;93203;-66
2023/04/13 10:03:21;;;;;;;19.92;2.92;;;;;;;;;;5003032;28;93573;-67
2023/04/13 10:05:48;;;;;;;17.52;3.22;;;;;;;;;;4985386;28;92559;-67
2023/04/13 10:08:17;;;;;;;14.32;2.25;;;;;;;;;;5005864;28;95604;-67
2023/04/13 10:11:00;;;;;;;13.32;1.70;;;;;;;;;;5015146;28;92948;-67
2023/04/13 10:13:29;;;;;;;20.45;2.70;;;;;;;;;;5011562;28;93017;-67
2023/04/13 10:16:15;;;;;;;8.93;2.08;;;;;;;;;;4994103;28;93930;-67
2023/04/13 10:18:49;;;;;;;14.05;2.47;;;;;;;;;;4991080;28;92714;-67
2023/04/13 10:21:15;;;;;;;10.30;1.85;;;;;;;;;;4995754;28;93184;-65
2023/04/13 10:23:42;;;;;;;15.88;2.88;;;;;;;;;;4992258;28;93091;-66
2023/04/13 10:26:09;;;;;;;14.07;2.78;;;;;;;;;;5001021;28;91842;-67
2023/04/13 10:28:42;;;;;;;10.20;1.92;;;;;;;;;;4995070;28;93583;-67
2023/04/13 10:31:09;;;;;;;12.77;2.35;;;;;;;;;;4991479;28;92564;-68
2023/04/13 10:33:48;;;;;;;10.77;2.03;;;;;;;;;;5011178;28;94822;-70
2023/04/13 10:36:14;;;;;;;13.50;2.38;;;;;;;;;;5011094;28;94465;-68
2023/04/13 10:38:41;;;;;;;16.20;2.47;;;;;;;;;;5010620;28;92708;-67
2023/04/13 10:41:07;;;;;;;16.50;2.72;;;;;;;;;;5000025;28;93127;-69
2023/04/13 10:43:34;;;;;;;14.88;2.53;;;;;;;;;;4977560;28;94128;-68
2023/04/13 10:46:18;;;;;;;11.20;2.15;;;;;;;;;;4974930;28;92578;-68
2023/04/13 10:48:52;;;;;;;13.45;2.15;;;;;;;;;;4997875;28;94303;-68
2023/04/13 10:51:19;;;;;;;19.65;2.97;;;;;;;;;;4994768;28;91834;-68
2023/04/13 10:53:45;;;;;;;19.02;2.47;;;;;;;;;;4994400;28;92432;-70
2023/04/13 10:56:15;;;;;;;17.70;2.20;;;;;;;;;;4994818;28;92693;-70
2023/04/13 10:58:42;;;;;;;11.60;3.05;;;;;;;;;;4992336;28;94990;-68
2023/04/13 11:01:09;;;;;;;11.60;2.20;;;;;;;;;;5006048;28;96633;-68
2023/04/13 11:03:36;;;;;;;16.98;2.75;;;;;;;;;;4994723;28;93483;-68
2023/04/13 11:06:02;;;;;;;16.67;2.33;;;;;;;;;;4993756;28;92465;-68
2023/04/13 11:08:29;;;;;;;11.70;2.13;;;;;;;;;;4995095;28;93079;-68
2023/04/13 11:10:56;;;;;;;16.98;2.05;;;;;;;;;;4994822;28;93932;-68
2023/04/13 11:13:27;;;;;;;13.60;2.45;;;;;;;;;;4994509;28;93173;-69
2023/04/13 11:16:04;;;;;;;9.40;2.08;;;;;;;;;;4994754;28;93578;-68
2023/04/13 11:18:31;;;;;;;11.82;2.20;;;;;;;;;;4990154;28;92560;-68
2023/04/13 11:20:57;;;;;;;13.35;1.92;;;;;;;;;;4994161;28;93243;-69
2023/04/13 11:23:24;;;;;;;14.65;2.58;;;;;;;;;;5009135;28;95792;-69
2023/04/13 11:25:54;;;;;;;16.90;3.47;;;;;;;;;;5013088;28;92494;-68
2023/04/13 11:28:21;;;;;;;;;;;;;;;;;;4999564;28;94253;-68
2023/04/13 11:30:54;;;;;;;12.13;2.13;;;;;;;;;;4994378;28;124242;-70
2023/04/13 11:33:28;;;;;;;16.35;2.42;;;;;;;;;;5011739;28;92495;-68
2023/04/13 11:35:55;;;;;;;18.85;2.75;;;;;;;;;;5010999;28;92941;-68
2023/04/13 11:38:22;;;;;;;18.92;2.33;;;;;;;;;;5013437;28;92537;-68
2023/04/13 11:40:49;;;;;;;12.55;2.55;;;;;;;;;;5013133;28;93484;-68
2023/04/13 11:43:20;;;;;;;12.45;2.50;;;;;;;;;;5014201;28;93362;-68
2023/04/13 11:45:46;;;;;;;16.73;3.15;;;;;;;;;;5007016;28;92809;-67
2023/04/13 11:48:13;;;;;;;16.90;2.58;;;;;;;;;;5010938;28;94990;-67
2023/04/13 11:50:41;;;;;;;18.90;3.13;;;;;;;;;;5003031;28;93885;-68
2023/04/13 11:53:08;;;;;;;15.82;2.40;;;;;;;;;;5000241;28;92566;-68
2023/04/13 11:55:35;;;;;;;11.30;2.35;;;;;;;;;;4988955;28;93448;-68
2023/04/13 11:58:19;;;;;;;14.15;2.40;;;;;;;;;;4992979;28;92554;-67
2023/04/13 12:00:47;;;;;;;14.80;2.35;;;;;;;;;;4992549;28;94128;-66
2023/04/13 12:03:14;;;;;;;11.90;2.20;;;;;;;;;;4996709;28;93566;-66
2023/04/13 12:05:48;;;;;;;10.70;2.50;;;;;;;;;;5004006;28;91739;-65
2023/04/13 12:08:22;;;;;;;11.95;2.15;;;;;;;;;;4994636;28;92646;-66
2023/04/13 12:10:57;;;;;;;16.48;2.28;;;;;;;;;;5007185;28;93482;-67
2023/04/13 12:13:43;;;;;;;16.15;2.28;;;;;;;;;;5007685;28;94811;-67
2023/04/13 12:16:32;;;;;;;12.63;2.08;;;;;;;;;;4979925;28;95210;-67
2023/04/13 12:19:08;;;;;;;15.90;2.38;;;;;;;;;;4974793;28;92419;-68
2023/04/13 12:21:37;;;;;;;16.35;2.50;;;;;;;;;;4969008;28;93003;-67
2023/04/13 12:24:05;;;;;;;16.85;2.40;;;;;;;;;;4996130;28;94409;-68
2023/04/13 12:26:35;;;;;;;10.75;2.60;;;;;;;;;;4995910;28;92592;-67
2023/04/13 12:29:05;;;;;;;13.30;2.33;;;;;;;;;;4995038;28;92940;-67
2023/04/13 12:31:32;;;;;;;13.75;3.00;;;;;;;;;;5008338;28;91860;-68
2023/04/13 12:33:59;;;;;;;13.65;2.22;;;;;;;;;;5013719;28;92402;-68
2023/04/13 12:36:30;;;;;;;14.55;2.60;;;;;;;;;;4990261;28;94180;-68
2023/04/13 12:38:56;;;;;;;;;;;;;;;;;;5014864;28;95545;-68
2023/04/13 12:41:23;;;;;;;20.33;2.80;;;;;;;;;;5014050;28;125934;-68
2023/04/13 12:43:49;;;;;;;14.30;2.65;;;;;;;;;;5010788;28;93531;-69
2023/04/13 12:46:16;;;;;;;13.60;2.80;;;;;;;;;;4990919;28;92904;-68
2023/04/13 12:48:42;;;;;;;17.20;2.65;;;;;;;;;;4992662;28;93261;-68
2023/04/13 12:51:09;;;;;;;23.75;3.78;;;;;;;;;;5006185;28;93484;-69
2023/04/13 12:53:35;;;;;;;14.07;3.50;;;;;;;;;;4990321;28;93395;-69
2023/04/13 12:56:01;;;;;;;19.30;3.63;;;;;;;;;;5013964;28;93361;-68
2023/04/13 12:58:28;;;;;;;17.35;2.60;;;;;;;;;;5012933;28;93391;-68
2023/04/13 13:00:54;;;;;;;10.88;3.00;;;;;;;;;;5011591;28;92550;-68
2023/04/13 13:03:22;;;;;;;11.32;2.30;;;;;;;;;;5015234;28;96973;-68
2023/04/13 13:05:48;;;;;;;16.13;2.75;;;;;;;;;;5009475;28;92718;-69
2023/04/13 13:08:15;;;;;;;15.10;2.83;;;;;;;;;;5000012;28;93268;-68
2023/04/13 13:10:41;;;;;;;15.38;2.63;;;;;;;;;;4995859;28;93438;-69
2023/04/13 13:13:07;;;;;;;11.68;2.42;;;;;;;;;;4996210;28;92444;-69
2023/04/13 13:15:34;;;;;;;19.38;2.63;;;;;;;;;;4994788;28;93148;-69
2023/04/13 13:18:02;;;;;;;19.85;3.28;;;;;;;;;;4998647;28;94012;-68
2023/04/13 13:20:29;;;;;;;11.65;2.88;;;;;;;;;;4995339;28;91751;-69
2023/04/13 13:22:56;;;;;;;15.38;2.72;;;;;;;;;;4999561;28;92526;-68
2023/04/13 13:25:22;;;;;;;12.10;2.58;;;;;;;;;;5005432;28;92451;-68
2023/04/13 13:27:49;;;;;;;9.35;2.47;;;;;;;;;;5009474;28;95331;-70
2023/04/13 13:30:18;;;;;;;10.98;2.15;;;;;;;;;;5013069;28;94186;-68
2023/04/13 13:32:45;;;;;;;9.52;2.00;;;;;;;;;;5015879;28;92420;-68
2023/04/13 13:35:12;;;;;;;10.15;1.60;;;;;;;;;;5001875;28;93214;-68
2023/04/13 13:37:39;;;;;;;38.42;3.20;;;;;;;;;;5001099;28;94580;-68
2023/04/13 13:40:11;;;;;;;8.27;1.63;;;;;;;;;;5011598;28;92787;-68
2023/04/13 13:42:38;;;;;;;9.90;1.58;;;;;;;;;;5001930;28;94162;-69
2023/04/13 13:45:16;;;;;;;13.50;2.13;;;;;;;;;;4998550;28;93765;-68
2023/04/13 13:47:44;;;;;;;10.85;1.90;;;;;;;;;;5009082;28;92751;-69
2023/04/13 13:50:11;;;;;;;8.43;1.52;;;;;;;;;;5011896;28;93740;-68
2023/04/13 13:52:37;;;;;;;7.00;1.70;;;;;;;;;;4994236;28;94954;-68
2023/04/13 13:55:13;;;;;;;11.73;1.98;;;;;;;;;;4995360;28;95540;-68
2023/04/13 13:57:40;;;;;;;7.93;1.85;;;;;;;;;;4994942;28;93462;-68
2023/04/13 14:00:15;;;;;;;10.88;2.42;;;;;;;;;;4981072;28;92504;-69
2023/04/13 14:02:42;;;;;;;10.63;2.05;;;;;;;;;;4998944;28;93368;-68
2023/04/13 14:05:12;;;;;;;8.90;1.63;;;;;;;;;;5014417;28;93265;-69
2023/04/13 14:07:42;;;;;;;12.88;2.38;;;;;;;;;;5016168;28;92407;-69
2023/04/13 14:10:09;;;;;;;5.95;1.10;;;;;;;;;;4994355;28;93676;-69
2023/04/13 14:12:39;;;;;;;6.70;1.80;;;;;;;;;;5003917;28;92522;-68
2023/04/13 14:15:07;;;;;;;11.00;2.30;;;;;;;;;;4995654;28;94171;-68
2023/04/13 14:17:33;;;;;;;8.50;1.58;;;;;;;;;;4992892;28;95891;-69
2023/04/13 14:20:00;;;;;;;4.88;1.60;;;;;;;;;;4995847;28;92440;-68
2023/04/13 14:22:26;;;;;;;13.10;2.70;;;;;;;;;;4997303;28;93280;-68
2023/04/13 14:24:54;;;;;;;7.05;1.92;;;;;;;;;;4995407;28;92424;-67
2023/04/13 14:27:20;;;;;;;11.00;2.38;;;;;;;;;;4998169;28;92446;-69
2023/04/13 14:29:46;;;;;;;6.22;1.60;;;;;;;;;;5011023;28;94487;-68
2023/04/13 14:32:13;;;;;;;10.50;2.50;;;;;;;;;;4997853;28;92475;-68
2023/04/13 14:34:40;;;;;;;7.22;1.48;;;;;;;;;;4995269;28;93397;-68
2023/04/13 14:37:06;;;;;;;10.88;2.15;;;;;;;;;;4994996;28;93071;-68
2023/04/13 14:39:32;;;;;;;8.57;2.33;;;;;;;;;;5010095;28;92616;-68
2023/04/13 14:41:59;;;;;;;12.20;2.38;;;;;;;;;;4998518;28;96280;-69